createdAt,value
2023-05-04T00:02:13.642Z,2.30
2023-05-04T00:04:42.771Z,2.20
2023-05-04T00:07:10.845Z,2.20
2023-05-04T00:09:38.787Z,2.10
2023-05-04T00:12:08.047Z,2.10
2023-05-04T00:14:38.066Z,2.10
2023-05-04T00:17:07.762Z,2.10
2023-05-04T00:19:36.353Z,2.00
2023-05-04T00:22:04.333Z,2.00
2023-05-04T00:24:32.183Z,2.00
2023-05-04T00:27:00.200Z,2.00
2023-05-04T00:29:28.090Z,2.00
2023-05-04T00:31:57.368Z,2.00
2023-05-04T00:34:25.536Z,2.00
2023-05-04T00:36:53.492Z,2.00
2023-05-04T00:39:21.499Z,2.00
2023-05-04T00:41:49.426Z,2.10
2023-05-04T00:44:17.303Z,2.10
2023-05-04T00:46:45.284Z,2.20
2023-05-04T00:49:14.724Z,2.30
2023-05-04T00:51:42.742Z,2.40
2023-05-04T00:54:10.630Z,2.50
2023-05-04T00:56:42.297Z,2.50
2023-05-04T00:59:10.394Z,2.70
2023-05-04T01:01:38.350Z,2.80
2023-05-04T01:04:06.876Z,2.90
2023-05-04T01:06:45.761Z,3.00
2023-05-04T01:09:22.343Z,3.00
2023-05-04T01:11:55.995Z,3.10
2023-05-04T01:14:24.279Z,3.10
2023-05-04T01:16:56.204Z,3.20
2023-05-04T01:19:24.435Z,3.20
2023-05-04T01:21:53.710Z,3.20
2023-05-04T01:24:21.964Z,3.20
2023-05-04T01:26:54.421Z,3.20
2023-05-04T01:29:28.609Z,3.20
2023-05-04T01:31:57.310Z,3.20
2023-05-04T01:34:25.317Z,3.20
2023-05-04T01:36:54.966Z,3.20
2023-05-04T01:39:22.938Z,3.20
2023-05-04T01:41:50.975Z,3.10
2023-05-04T01:44:18.890Z,3.10
2023-05-04T01:46:46.850Z,3.10
2023-05-04T01:49:14.823Z,3.10
2023-05-04T01:51:42.690Z,3.10
2023-05-04T01:54:11.988Z,3.10
2023-05-04T01:56:40.055Z,3.00
2023-05-04T01:59:07.968Z,3.00
2023-05-04T02:01:36.537Z,2.90
2023-05-04T02:04:04.764Z,2.90
2023-05-04T02:06:32.702Z,2.90
2023-05-04T02:09:00.924Z,2.90
2023-05-04T02:11:30.222Z,2.80
2023-05-04T02:13:58.154Z,2.80
2023-05-04T02:16:26.175Z,2.70
2023-05-04T02:18:54.067Z,2.70
2023-05-04T02:21:22.020Z,2.60
2023-05-04T02:23:49.976Z,2.60
2023-05-04T02:26:17.879Z,2.60
2023-05-04T02:28:47.116Z,2.50
2023-05-04T02:31:15.076Z,2.40
2023-05-04T02:33:43.053Z,2.40
2023-05-04T02:36:10.985Z,2.30
2023-05-04T02:38:38.862Z,2.30
2023-05-04T02:41:06.738Z,2.30
2023-05-04T02:43:34.588Z,2.30
2023-05-04T02:46:04.059Z,2.20
2023-05-04T02:48:32.594Z,2.20
2023-05-04T02:51:00.750Z,2.10
2023-05-04T02:53:28.686Z,2.10
2023-05-04T02:55:56.646Z,2.10
2023-05-04T02:58:24.537Z,2.10
2023-05-04T03:00:55.219Z,2.10
2023-05-04T03:03:24.512Z,2.10
2023-05-04T03:05:52.417Z,2.10
2023-05-04T03:08:20.496Z,2.10
2023-05-04T03:10:48.452Z,2.10
2023-05-04T03:13:16.622Z,2.10
2023-05-04T03:15:44.736Z,2.10
2023-05-04T03:18:12.626Z,2.10
2023-05-04T03:20:42.140Z,2.00
2023-05-04T03:23:10.103Z,2.10
2023-05-04T03:25:37.982Z,2.10
2023-05-04T03:28:06.779Z,2.10
2023-05-04T03:30:35.137Z,2.10
2023-05-04T03:33:03.054Z,2.00
2023-05-04T03:35:31.064Z,2.10
2023-05-04T03:38:00.213Z,2.00
2023-05-04T03:40:28.280Z,2.00
2023-05-04T03:42:56.109Z,2.00
2023-05-04T03:45:24.457Z,2.00
2023-05-04T03:47:52.364Z,2.00
2023-05-04T03:50:21.345Z,2.00
2023-05-04T03:52:49.250Z,1.90
2023-05-04T03:55:18.528Z,1.90
2023-05-04T03:57:46.690Z,1.90
2023-05-04T04:00:15.733Z,1.90
2023-05-04T04:02:43.758Z,1.90
2023-05-04T04:05:11.662Z,1.90
2023-05-04T04:07:39.610Z,1.90
2023-05-04T04:10:08.853Z,1.90
2023-05-04T04:12:38.149Z,2.00
2023-05-04T04:15:07.889Z,2.00
2023-05-04T04:17:35.848Z,2.00
2023-05-04T04:20:03.963Z,2.20
2023-05-04T04:22:31.967Z,2.10
2023-05-04T04:24:59.797Z,2.20
2023-05-04T04:27:27.718Z,2.40
2023-05-04T04:29:57.401Z,2.50
2023-05-04T04:32:25.365Z,2.70
2023-05-04T04:34:53.274Z,2.80
2023-05-04T04:37:21.084Z,2.90
2023-05-04T04:39:48.959Z,3.00
2023-05-04T04:42:17.368Z,3.10
2023-05-04T04:44:45.678Z,3.30
2023-05-04T04:47:16.647Z,3.50
2023-05-04T04:49:44.905Z,3.70
2023-05-04T04:52:12.833Z,4.10
2023-05-04T04:54:40.750Z,4.40
2023-05-04T04:57:08.684Z,4.80
2023-05-04T04:59:38.063Z,5.00
2023-05-04T05:02:06.026Z,5.10
2023-05-04T05:04:35.798Z,5.30
2023-05-04T05:07:04.244Z,5.40
2023-05-04T05:09:32.068Z,5.50
2023-05-04T05:11:59.969Z,5.70
2023-05-04T05:14:28.514Z,5.90
2023-05-04T05:16:56.407Z,6.20
2023-05-04T05:19:24.317Z,6.60
2023-05-04T05:21:54.114Z,7.10
2023-05-04T05:24:21.940Z,7.50
2023-05-04T05:26:49.837Z,7.70
2023-05-04T05:29:17.808Z,8.20
2023-05-04T05:31:46.730Z,8.50
2023-05-04T05:34:14.594Z,8.80
2023-05-04T05:36:43.128Z,8.90
2023-05-04T05:39:12.545Z,9.10
2023-05-04T05:41:40.422Z,9.30
2023-05-04T05:44:08.300Z,9.40
2023-05-04T05:46:36.300Z,9.70
2023-05-04T05:49:05.956Z,9.90
2023-05-04T05:51:34.005Z,10.00
2023-05-04T05:54:01.925Z,10.10
2023-05-04T05:56:31.213Z,10.40
2023-05-04T05:58:59.160Z,10.70
2023-05-04T06:01:27.705Z,10.90
2023-05-04T06:03:55.691Z,11.20
2023-05-04T06:06:23.793Z,11.40
2023-05-04T06:08:51.957Z,11.40
2023-05-04T06:11:19.824Z,11.30
2023-05-04T06:13:49.017Z,11.50
2023-05-04T06:16:16.861Z,11.80
2023-05-04T06:18:44.736Z,12.10
2023-05-04T06:21:12.699Z,12.40
2023-05-04T06:23:40.537Z,12.40
2023-05-04T06:26:08.674Z,12.30
2023-05-04T06:28:36.687Z,12.10
2023-05-04T06:31:06.162Z,12.20
2023-05-04T06:33:34.175Z,12.30
2023-05-04T06:36:02.058Z,12.20
2023-05-04T06:38:29.878Z,12.70
2023-05-04T06:40:57.875Z,13.10
2023-05-04T06:43:25.714Z,13.50
2023-05-04T06:45:53.532Z,13.60
2023-05-04T06:48:22.851Z,13.60
2023-05-04T06:50:50.745Z,13.90
2023-05-04T06:53:18.671Z,14.10
2023-05-04T06:55:46.685Z,13.90
2023-05-04T06:58:14.811Z,13.90
2023-05-04T07:00:43.407Z,13.90
2023-05-04T07:03:11.569Z,14.10
2023-05-04T07:05:41.029Z,14.10
2023-05-04T07:08:09.764Z,14.00
2023-05-04T07:10:37.724Z,14.10
2023-05-04T07:13:05.965Z,14.30
2023-05-04T07:15:34.535Z,14.60
2023-05-04T07:18:02.708Z,15.00
2023-05-04T07:20:30.678Z,15.10
2023-05-04T07:22:59.896Z,15.20
2023-05-04T07:25:28.569Z,15.30
2023-05-04T07:27:56.568Z,15.70
2023-05-04T07:30:25.782Z,16.00
2023-05-04T07:32:53.675Z,16.20
2023-05-04T07:35:21.864Z,16.50
2023-05-04T07:37:49.774Z,16.60
2023-05-04T07:40:19.154Z,16.70
2023-05-04T07:42:47.103Z,16.70
2023-05-04T07:45:16.883Z,16.80
2023-05-04T07:47:44.831Z,16.80
2023-05-04T07:50:14.112Z,16.30
2023-05-04T07:52:42.700Z,16.30
2023-05-04T07:55:11.029Z,16.60
2023-05-04T07:57:40.265Z,16.90
2023-05-04T08:00:10.975Z,17.20
2023-05-04T08:02:39.007Z,17.10
2023-05-04T08:05:07.910Z,17.10
2023-05-04T08:07:35.903Z,17.40
2023-05-04T08:10:04.864Z,17.10
2023-05-04T08:12:33.040Z,17.00
2023-05-04T08:15:02.476Z,17.30
2023-05-04T08:17:30.667Z,17.60
2023-05-04T08:19:58.663Z,17.60
2023-05-04T08:22:27.115Z,17.40
2023-05-04T08:24:55.356Z,17.80
2023-05-04T08:27:23.374Z,18.00
2023-05-04T08:29:51.228Z,18.20
2023-05-04T08:32:20.453Z,18.00
2023-05-04T08:34:48.362Z,18.20
2023-05-04T08:37:16.278Z,18.50
2023-05-04T08:39:44.215Z,18.60
2023-05-04T08:42:12.457Z,18.50
2023-05-04T08:44:42.697Z,18.70
2023-05-04T08:47:12.560Z,18.70
2023-05-04T08:49:42.267Z,18.70
2023-05-04T08:52:11.036Z,19.00
2023-05-04T08:54:40.035Z,19.10
2023-05-04T08:57:08.121Z,19.10
2023-05-04T08:59:37.364Z,19.20
2023-05-04T09:02:06.139Z,19.20
2023-05-04T09:04:34.325Z,19.10
2023-05-04T09:07:03.718Z,19.30
2023-05-04T09:09:32.443Z,19.20
2023-05-04T09:12:00.409Z,19.50
2023-05-04T09:14:35.572Z,19.60
2023-05-04T09:17:04.042Z,19.50
2023-05-04T09:19:34.791Z,19.40
2023-05-04T09:22:14.747Z,19.40
2023-05-04T09:24:42.568Z,19.40
2023-05-04T09:27:11.239Z,19.40
2023-05-04T09:29:40.537Z,19.00
2023-05-04T09:32:13.421Z,19.00
2023-05-04T09:34:51.822Z,19.30
2023-05-04T09:37:22.227Z,19.40
2023-05-04T09:39:55.195Z,19.60
2023-05-04T09:42:24.149Z,19.80
2023-05-04T09:45:03.353Z,19.80
2023-05-04T09:47:36.011Z,19.80
2023-05-04T09:50:18.343Z,19.70
2023-05-04T09:52:50.636Z,19.60
2023-05-04T09:55:20.232Z,19.60
2023-05-04T09:57:50.211Z,19.60
2023-05-04T10:00:19.936Z,19.70
2023-05-04T10:02:48.990Z,19.90
2023-05-04T10:05:18.510Z,20.00
2023-05-04T10:07:47.217Z,19.90
2023-05-04T10:10:16.750Z,19.80
2023-05-04T10:12:46.014Z,19.10
2023-05-04T10:15:15.899Z,19.10
2023-05-04T10:17:56.208Z,19.10
2023-05-04T10:20:44.669Z,18.70
2023-05-04T10:23:35.324Z,18.80
2023-05-04T10:26:27.440Z,19.10
2023-05-04T10:29:07.622Z,19.10
2023-05-04T10:31:40.607Z,19.10
2023-05-04T10:34:09.416Z,18.70
2023-05-04T10:36:40.666Z,18.30
2023-05-04T10:39:20.449Z,18.40
2023-05-04T10:42:00.431Z,18.70
2023-05-04T10:44:29.723Z,18.20
2023-05-04T10:46:59.831Z,18.30
2023-05-04T10:49:28.011Z,18.60
2023-05-04T10:52:12.938Z,18.90
2023-05-04T10:54:42.089Z,18.90
2023-05-04T10:57:13.517Z,18.90
2023-05-04T10:59:42.372Z,18.60
2023-05-04T11:02:10.448Z,18.40
2023-05-04T11:04:39.265Z,18.40
2023-05-04T11:07:08.767Z,18.40
2023-05-04T11:09:38.324Z,18.40
2023-05-04T11:12:07.224Z,18.40
2023-05-04T11:14:37.854Z,18.50
2023-05-04T11:17:26.089Z,18.90
2023-05-04T11:19:55.138Z,18.90
2023-05-04T11:22:23.359Z,19.20
2023-05-04T11:24:51.451Z,19.30
2023-05-04T11:27:24.211Z,19.30
2023-05-04T11:30:00.963Z,19.20
2023-05-04T11:32:36.823Z,19.30
2023-05-04T11:35:06.307Z,19.30
2023-05-04T11:37:40.562Z,19.20
2023-05-04T11:40:13.061Z,19.30
2023-05-04T11:42:42.517Z,19.30
2023-05-04T11:45:17.132Z,19.30
2023-05-04T11:47:46.153Z,19.40
2023-05-04T11:50:16.124Z,19.50
2023-05-04T11:52:44.908Z,19.60
2023-05-04T11:55:14.571Z,19.50
2023-05-04T11:57:42.400Z,19.70
2023-05-04T12:00:13.325Z,19.60
2023-05-04T12:02:42.171Z,19.80
2023-05-04T12:05:14.946Z,20.00
2023-05-04T12:07:43.222Z,20.20
2023-05-04T12:10:11.520Z,20.40
2023-05-04T12:12:39.584Z,20.50
2023-05-04T12:15:08.903Z,20.60
2023-05-04T12:17:45.344Z,20.70
2023-05-04T12:20:25.132Z,20.70
2023-05-04T12:22:53.217Z,20.60
2023-05-04T12:25:21.717Z,20.50
2023-05-04T12:27:49.752Z,20.60
2023-05-04T12:30:18.459Z,20.70
2023-05-04T12:32:47.707Z,20.70
2023-05-04T12:35:15.801Z,20.80
2023-05-04T12:37:43.786Z,20.80
2023-05-04T12:40:27.343Z,20.70
2023-05-04T12:42:56.354Z,20.70
2023-05-04T12:45:24.193Z,20.70
2023-05-04T12:47:53.659Z,21.00
2023-05-04T12:50:21.662Z,21.10
2023-05-04T12:52:49.991Z,21.10
2023-05-04T12:55:18.115Z,21.20
2023-05-04T12:57:46.219Z,21.20
2023-05-04T13:00:15.513Z,21.10
2023-05-04T13:02:44.551Z,21.20
2023-05-04T13:05:16.129Z,21.20
2023-05-04T13:07:44.345Z,21.00
2023-05-04T13:10:12.491Z,20.70
2023-05-04T13:12:40.530Z,20.50
2023-05-04T13:15:09.824Z,20.70
2023-05-04T13:17:38.024Z,20.70
2023-05-04T13:20:07.185Z,20.70
2023-05-04T13:22:36.775Z,20.60
2023-05-04T13:25:05.433Z,20.60
2023-05-04T13:27:33.743Z,20.80
2023-05-04T13:30:03.520Z,20.80
2023-05-04T13:32:32.133Z,20.90
2023-05-04T13:35:00.082Z,21.00
2023-05-04T13:37:27.986Z,21.10
2023-05-04T13:39:57.954Z,21.20
2023-05-04T13:42:25.883Z,21.20
2023-05-04T13:44:53.912Z,21.30
2023-05-04T13:47:23.585Z,21.50
2023-05-04T13:49:51.661Z,21.30
2023-05-04T13:52:19.575Z,21.10
2023-05-04T13:54:48.004Z,20.80
2023-05-04T13:57:17.192Z,20.90
2023-05-04T13:59:54.901Z,21.00
2023-05-04T14:02:33.288Z,20.90
2023-05-04T14:05:01.393Z,21.00
2023-05-04T14:07:29.366Z,20.70
2023-05-04T14:09:57.424Z,20.90
2023-05-04T14:12:27.463Z,20.90
2023-05-04T14:14:55.807Z,20.80
2023-05-04T14:17:23.731Z,20.70
2023-05-04T14:19:51.997Z,20.60
2023-05-04T14:22:19.980Z,20.50
2023-05-04T14:24:47.912Z,20.30
2023-05-04T14:27:15.850Z,20.20
2023-05-04T14:29:47.629Z,20.20
2023-05-04T14:32:16.142Z,20.10
2023-05-04T14:34:44.393Z,20.00
2023-05-04T14:37:12.222Z,20.00
2023-05-04T14:39:40.769Z,20.00
2023-05-04T14:42:08.687Z,19.90
2023-05-04T14:44:37.083Z,19.80
2023-05-04T14:47:07.727Z,19.60
2023-05-04T14:49:37.510Z,19.70
2023-05-04T14:52:05.994Z,19.50
2023-05-04T14:54:33.927Z,19.50
2023-05-04T14:57:02.572Z,19.30
2023-05-04T14:59:30.454Z,19.50
2023-05-04T15:01:58.420Z,19.50
2023-05-04T15:04:27.611Z,19.60
2023-05-04T15:06:55.663Z,19.50
2023-05-04T15:09:23.694Z,19.40
2023-05-04T15:11:54.311Z,19.30
2023-05-04T15:14:23.737Z,19.20
2023-05-04T15:16:51.601Z,19.20
2023-05-04T15:19:19.479Z,19.20
2023-05-04T15:21:49.618Z,19.20
2023-05-04T15:24:17.516Z,19.30
2023-05-04T15:26:46.059Z,19.30
2023-05-04T15:29:13.983Z,19.30
2023-05-04T15:31:42.218Z,19.40
2023-05-04T15:34:10.265Z,19.40
2023-05-04T15:36:38.160Z,19.50
2023-05-04T15:39:08.346Z,19.50
2023-05-04T15:41:36.489Z,19.60
2023-05-04T15:44:06.679Z,19.40
2023-05-04T15:46:34.663Z,19.40
2023-05-04T15:49:02.593Z,19.50
2023-05-04T15:51:31.943Z,19.50
2023-05-04T15:54:00.196Z,19.40
2023-05-04T15:56:29.398Z,19.30
2023-05-04T15:58:57.315Z,19.20
2023-05-04T16:01:25.491Z,19.20
2023-05-04T16:03:56.618Z,19.20
2023-05-04T16:06:24.791Z,19.00
2023-05-04T16:08:53.267Z,19.00
2023-05-04T16:11:21.406Z,19.00
2023-05-04T16:13:50.811Z,19.00
2023-05-04T16:16:18.753Z,19.10
2023-05-04T16:18:46.747Z,19.10
2023-05-04T16:21:15.180Z,19.00
2023-05-04T16:23:43.209Z,19.00
2023-05-04T16:26:11.118Z,19.00
2023-05-04T16:28:40.457Z,19.10
2023-05-04T16:31:11.824Z,19.10
2023-05-04T16:33:41.333Z,19.10
2023-05-04T16:36:10.317Z,19.10
2023-05-04T16:38:38.186Z,19.00
2023-05-04T16:41:06.224Z,19.10
2023-05-04T16:43:34.099Z,19.20
2023-05-04T16:46:02.490Z,19.20
2023-05-04T16:48:31.839Z,19.10
2023-05-04T16:50:59.967Z,19.20
2023-05-04T16:53:27.789Z,19.10
2023-05-04T16:55:55.882Z,19.10
2023-05-04T16:58:23.742Z,19.00
2023-05-04T17:00:51.689Z,18.90
2023-05-04T17:03:19.647Z,18.80
2023-05-04T17:05:49.085Z,18.70
2023-05-04T17:08:17.497Z,18.80
2023-05-04T17:10:45.379Z,18.70
2023-05-04T17:13:13.312Z,18.40
2023-05-04T17:15:41.266Z,18.30
2023-05-04T17:18:09.282Z,18.20
2023-05-04T17:20:37.233Z,18.00
2023-05-04T17:23:06.941Z,17.90
2023-05-04T17:25:35.064Z,17.80
2023-05-04T17:28:03.236Z,17.60
2023-05-04T17:30:33.588Z,17.50
2023-05-04T17:33:01.712Z,17.30
2023-05-04T17:35:29.815Z,17.20
2023-05-04T17:37:58.842Z,17.00
2023-05-04T17:40:28.864Z,16.90
2023-05-04T17:42:57.103Z,16.80
2023-05-04T17:45:25.521Z,16.70
2023-05-04T17:47:53.736Z,16.50
2023-05-04T17:50:22.228Z,16.40
2023-05-04T17:52:53.243Z,16.30
2023-05-04T17:55:21.540Z,16.20
2023-05-04T17:57:51.019Z,16.00
2023-05-04T18:00:19.738Z,15.90
2023-05-04T18:02:47.993Z,15.80
2023-05-04T18:05:16.285Z,15.70
2023-05-04T18:07:44.200Z,15.60
2023-05-04T18:10:12.474Z,15.40
2023-05-04T18:12:40.711Z,15.40
2023-05-04T18:15:11.121Z,15.20
2023-05-04T18:17:39.104Z,15.00
2023-05-04T18:20:09.190Z,14.90
2023-05-04T18:22:37.767Z,14.80
2023-05-04T18:25:06.959Z,14.60
2023-05-04T18:27:35.854Z,14.50
2023-05-04T18:30:06.133Z,14.40
2023-05-04T18:32:35.777Z,14.30
2023-05-04T18:35:04.099Z,14.20
2023-05-04T18:37:32.085Z,14.10
2023-05-04T18:40:00.601Z,14.00
2023-05-04T18:42:28.595Z,13.90
2023-05-04T18:44:57.587Z,13.80
2023-05-04T18:47:25.538Z,13.70
2023-05-04T18:49:56.464Z,13.60
2023-05-04T18:52:24.446Z,13.40
2023-05-04T18:54:52.456Z,13.40
2023-05-04T18:57:20.460Z,13.30
2023-05-04T18:59:48.554Z,13.10
2023-05-04T19:02:17.401Z,13.00
2023-05-04T19:04:46.897Z,12.90
2023-05-04T19:07:17.293Z,12.80
2023-05-04T19:09:46.532Z,12.70
2023-05-04T19:12:15.539Z,12.60
2023-05-04T19:14:44.170Z,12.50
2023-05-04T19:17:14.655Z,12.50
2023-05-04T19:19:42.626Z,12.40
2023-05-04T19:22:11.515Z,12.30
2023-05-04T19:24:41.003Z,12.20
2023-05-04T19:27:09.499Z,12.10
2023-05-04T19:29:37.466Z,12.00
2023-05-04T19:32:19.837Z,11.90
2023-05-04T19:34:48.280Z,11.90
2023-05-04T19:37:16.328Z,11.80
2023-05-04T19:39:45.590Z,11.70
2023-05-04T19:42:13.648Z,11.60
2023-05-04T19:44:41.948Z,11.50
2023-05-04T19:47:10.180Z,11.50
2023-05-04T19:49:38.330Z,11.50
2023-05-04T19:52:06.920Z,11.40
2023-05-04T19:54:35.644Z,11.40
2023-05-04T19:57:04.997Z,11.30
2023-05-04T19:59:32.914Z,11.20
2023-05-04T20:02:01.036Z,11.10
2023-05-04T20:04:29.161Z,11.00
2023-05-04T20:06:57.284Z,10.90
2023-05-04T20:09:25.233Z,10.90
2023-05-04T20:11:53.078Z,10.80
2023-05-04T20:14:22.547Z,10.70
2023-05-04T20:16:51.256Z,10.60
2023-05-04T20:19:19.175Z,10.60
2023-05-04T20:21:47.049Z,10.50
2023-05-04T20:24:15.631Z,10.50
2023-05-04T20:26:43.508Z,10.40
2023-05-04T20:29:11.453Z,10.40
2023-05-04T20:31:41.712Z,10.30
2023-05-04T20:34:09.596Z,10.30
2023-05-04T20:36:37.513Z,10.30
2023-05-04T20:39:06.919Z,10.20
2023-05-04T20:41:34.792Z,10.20
2023-05-04T20:44:02.735Z,10.10
2023-05-04T20:46:30.667Z,10.10
2023-05-04T20:49:02.760Z,10.00
2023-05-04T20:51:31.180Z,10.00
2023-05-04T20:53:59.119Z,10.00
2023-05-04T20:56:27.129Z,9.90
2023-05-04T20:58:55.002Z,9.90
2023-05-04T21:01:22.959Z,9.90
2023-05-04T21:03:51.070Z,9.90
2023-05-04T21:06:20.406Z,9.90
2023-05-04T21:08:48.464Z,9.90
2023-05-04T21:11:16.351Z,9.90
2023-05-04T21:13:44.320Z,9.90
2023-05-04T21:16:12.319Z,9.80
2023-05-04T21:18:40.324Z,9.80
2023-05-04T21:21:08.198Z,9.60
2023-05-04T21:23:37.420Z,9.60
2023-05-04T21:26:05.996Z,9.50
2023-05-04T21:28:34.242Z,9.50
2023-05-04T21:31:02.292Z,9.50
2023-05-04T21:33:30.192Z,9.50
2023-05-04T21:35:58.134Z,9.40
2023-05-04T21:38:26.070Z,9.40
2023-05-04T21:40:55.346Z,9.40
2023-05-04T21:43:23.272Z,9.40
2023-05-04T21:45:51.083Z,9.40
2023-05-04T21:48:18.999Z,9.30
2023-05-04T21:50:46.906Z,9.30
2023-05-04T21:53:15.078Z,9.30
2023-05-04T21:55:42.909Z,9.30
2023-05-04T21:58:12.388Z,9.20
2023-05-04T22:00:40.314Z,9.20
2023-05-04T22:03:08.229Z,9.10
2023-05-04T22:05:36.335Z,9.10
2023-05-04T22:08:04.430Z,9.10
2023-05-04T22:10:32.260Z,9.00
2023-05-04T22:13:00.253Z,9.00
2023-05-04T22:15:38.268Z,8.90
2023-05-04T22:18:10.115Z,8.90
2023-05-04T22:20:38.176Z,8.90
2023-05-04T22:23:06.428Z,8.80
2023-05-04T22:25:34.327Z,8.80
2023-05-04T22:28:02.227Z,8.70
2023-05-04T22:30:31.701Z,8.70
2023-05-04T22:32:59.708Z,8.60
2023-05-04T22:35:27.698Z,8.60
2023-05-04T22:37:55.620Z,8.50
2023-05-04T22:40:23.768Z,8.50
2023-05-04T22:42:51.654Z,8.50
2023-05-04T22:45:19.614Z,8.40
2023-05-04T22:47:49.319Z,8.40
2023-05-04T22:50:17.511Z,8.40
2023-05-04T22:52:45.532Z,8.50
2023-05-04T22:55:27.828Z,8.50
2023-05-04T22:57:56.081Z,8.50
2023-05-04T23:00:24.644Z,8.50
2023-05-04T23:02:54.114Z,8.60
2023-05-04T23:05:22.658Z,8.70
2023-05-04T23:07:52.407Z,8.80
2023-05-04T23:10:20.944Z,8.80
2023-05-04T23:12:48.901Z,9.00
2023-05-04T23:15:18.263Z,9.00
2023-05-04T23:17:46.225Z,9.00
2023-05-04T23:20:16.798Z,9.00
2023-05-04T23:22:44.772Z,9.00
2023-05-04T23:25:12.800Z,9.00
2023-05-04T23:27:40.808Z,9.00
2023-05-04T23:30:10.350Z,9.10
2023-05-04T23:32:38.417Z,9.10
2023-05-04T23:35:07.927Z,9.30
2023-05-04T23:37:37.174Z,9.50
2023-05-04T23:40:05.821Z,9.50
2023-05-04T23:42:33.832Z,9.70
2023-05-04T23:45:01.701Z,9.70
2023-05-04T23:47:29.737Z,9.70
2023-05-04T23:49:57.830Z,9.80
2023-05-04T23:52:26.095Z,9.90
2023-05-04T23:54:55.966Z,9.90
2023-05-04T23:57:23.992Z,9.90
2023-05-04T23:59:53.584Z,9.90
